sensor_id;sensor_type;location;lat;lon;timestamp;P1;durP1;ratioP1;P2;durP2;ratioP2
56269;SDS011;42176;43.240;27.880;2023-02-28T00:00:43;3.80;;;2.63;;
56269;SDS011;42176;43.240;27.880;2023-02-28T00:03:09;4.80;;;2.67;;
56269;SDS011;42176;43.240;27.880;2023-02-28T00:05:34;3.38;;;2.33;;
56269;SDS011;42176;43.240;27.880;2023-02-28T00:07:59;3.85;;;2.85;;
56269;SDS011;42176;43.240;27.880;2023-02-28T00:10:26;2.38;;;2.15;;
56269;SDS011;42176;43.240;27.880;2023-02-28T00:12:53;3.35;;;2.40;;
56269;SDS011;42176;43.240;27.880;2023-02-28T00:15:24;6.38;;;2.78;;
56269;SDS011;42176;43.240;27.880;2023-02-28T00:17:50;3.95;;;2.22;;
56269;SDS011;42176;43.240;27.880;2023-02-28T00:20:16;3.47;;;2.47;;
56269;SDS011;42176;43.240;27.880;2023-02-28T00:22:43;4.50;;;2.85;;
56269;SDS011;42176;43.240;27.880;2023-02-28T00:25:11;1.30;;;1.13;;
56269;SDS011;42176;43.240;27.880;2023-02-28T00:27:38;4.13;;;2.53;;
56269;SDS011;42176;43.240;27.880;2023-02-28T00:32:33;2.75;;;2.28;;
56269;SDS011;42176;43.240;27.880;2023-02-28T00:34:59;4.45;;;2.90;;
56269;SDS011;42176;43.240;27.880;2023-02-28T00:37:25;3.95;;;3.05;;
56269;SDS011;42176;43.240;27.880;2023-02-28T00:39:50;3.72;;;2.65;;
56269;SDS011;42176;43.240;27.880;2023-02-28T00:42:16;4.18;;;2.50;;
56269;SDS011;42176;43.240;27.880;2023-02-28T00:44:41;6.97;;;2.70;;
56269;SDS011;42176;43.240;27.880;2023-02-28T00:47:07;3.88;;;2.40;;
56269;SDS011;42176;43.240;27.880;2023-02-28T00:49:32;4.03;;;2.83;;
56269;SDS011;42176;43.240;27.880;2023-02-28T00:51:58;4.20;;;3.08;;
56269;SDS011;42176;43.240;27.880;2023-02-28T00:54:23;3.85;;;2.88;;
56269;SDS011;42176;43.240;27.880;2023-02-28T00:56:49;5.18;;;3.05;;
56269;SDS011;42176;43.240;27.880;2023-02-28T00:59:15;4.68;;;3.63;;
56269;SDS011;42176;43.240;27.880;2023-02-28T01:01:42;7.18;;;3.25;;
56269;SDS011;42176;43.240;27.880;2023-02-28T01:04:08;4.45;;;3.17;;
56269;SDS011;42176;43.240;27.880;2023-02-28T01:06:34;5.30;;;3.38;;
56269;SDS011;42176;43.240;27.880;2023-02-28T01:09:00;5.03;;;2.85;;
56269;SDS011;42176;43.240;27.880;2023-02-28T01:11:27;5.15;;;3.42;;
56269;SDS011;42176;43.240;27.880;2023-02-28T01:13:52;4.43;;;3.30;;
56269;SDS011;42176;43.240;27.880;2023-02-28T01:16:18;8.02;;;3.75;;
56269;SDS011;42176;43.240;27.880;2023-02-28T01:18:43;5.10;;;3.47;;
56269;SDS011;42176;43.240;27.880;2023-02-28T01:21:11;5.57;;;3.58;;
56269;SDS011;42176;43.240;27.880;2023-02-28T01:23:38;5.68;;;3.47;;
56269;SDS011;42176;43.240;27.880;2023-02-28T01:26:08;5.95;;;3.83;;
56269;SDS011;42176;43.240;27.880;2023-02-28T01:28:35;5.25;;;3.05;;
56269;SDS011;42176;43.240;27.880;2023-02-28T01:31:01;4.55;;;3.60;;
56269;SDS011;42176;43.240;27.880;2023-02-28T01:33:27;4.65;;;3.05;;
56269;SDS011;42176;43.240;27.880;2023-02-28T01:36:03;5.78;;;3.60;;
56269;SDS011;42176;43.240;27.880;2023-02-28T01:38:30;5.13;;;3.67;;
56269;SDS011;42176;43.240;27.880;2023-02-28T01:40:56;6.00;;;3.45;;
56269;SDS011;42176;43.240;27.880;2023-02-28T01:43:29;5.53;;;3.40;;
56269;SDS011;42176;43.240;27.880;2023-02-28T01:45:58;5.43;;;3.10;;
56269;SDS011;42176;43.240;27.880;2023-02-28T01:48:31;7.68;;;3.38;;
56269;SDS011;42176;43.240;27.880;2023-02-28T01:51:01;4.30;;;3.42;;
56269;SDS011;42176;43.240;27.880;2023-02-28T01:53:34;3.88;;;3.28;;
56269;SDS011;42176;43.240;27.880;2023-02-28T01:56:07;4.05;;;2.97;;
56269;SDS011;42176;43.240;27.880;2023-02-28T01:58:35;4.05;;;2.72;;
56269;SDS011;42176;43.240;27.880;2023-02-28T02:01:02;4.53;;;3.28;;
56269;SDS011;42176;43.240;27.880;2023-02-28T02:03:28;8.65;;;3.58;;
56269;SDS011;42176;43.240;27.880;2023-02-28T02:05:55;3.60;;;2.55;;
56269;SDS011;42176;43.240;27.880;2023-02-28T02:08:24;3.97;;;2.47;;
56269;SDS011;42176;43.240;27.880;2023-02-28T02:10:56;5.18;;;2.97;;
56269;SDS011;42176;43.240;27.880;2023-02-28T02:24:45;5.40;;;2.95;;
56269;SDS011;42176;43.240;27.880;2023-02-28T02:27:22;4.82;;;3.28;;
56269;SDS011;42176;43.240;27.880;2023-02-28T02:32:45;4.65;;;3.33;;
56269;SDS011;42176;43.240;27.880;2023-02-28T02:37:48;4.25;;;3.13;;
56269;SDS011;42176;43.240;27.880;2023-02-28T02:40:20;5.53;;;3.35;;
56269;SDS011;42176;43.240;27.880;2023-02-28T02:43:02;4.53;;;3.05;;
56269;SDS011;42176;43.240;27.880;2023-02-28T02:45:56;4.50;;;2.60;;
56269;SDS011;42176;43.240;27.880;2023-02-28T02:48:28;6.75;;;3.83;;
56269;SDS011;42176;43.240;27.880;2023-02-28T02:50:59;4.28;;;3.00;;
56269;SDS011;42176;43.240;27.880;2023-02-28T02:53:30;5.93;;;3.80;;
56269;SDS011;42176;43.240;27.880;2023-02-28T02:55:59;4.93;;;3.03;;
56269;SDS011;42176;43.240;27.880;2023-02-28T02:58:28;4.82;;;3.10;;
56269;SDS011;42176;43.240;27.880;2023-02-28T03:01:07;3.95;;;3.13;;
56269;SDS011;42176;43.240;27.880;2023-02-28T03:03:36;4.13;;;2.65;;
56269;SDS011;42176;43.240;27.880;2023-02-28T03:06:02;3.55;;;3.25;;
56269;SDS011;42176;43.240;27.880;2023-02-28T03:08:29;4.30;;;2.97;;
56269;SDS011;42176;43.240;27.880;2023-02-28T03:10:59;3.33;;;2.53;;
56269;SDS011;42176;43.240;27.880;2023-02-28T03:26:58;3.42;;;2.55;;
56269;SDS011;42176;43.240;27.880;2023-02-28T03:29:56;5.38;;;2.60;;
56269;SDS011;42176;43.240;27.880;2023-02-28T03:32:25;4.38;;;2.65;;
56269;SDS011;42176;43.240;27.880;2023-02-28T03:37:30;3.85;;;2.70;;
56269;SDS011;42176;43.240;27.880;2023-02-28T03:40:34;3.00;;;2.25;;
56269;SDS011;42176;43.240;27.880;2023-02-28T03:42:57;5.32;;;3.47;;
56269;SDS011;42176;43.240;27.880;2023-02-28T03:45:29;3.20;;;2.85;;
56269;SDS011;42176;43.240;27.880;2023-02-28T03:48:00;4.25;;;3.05;;
56269;SDS011;42176;43.240;27.880;2023-02-28T03:50:51;4.78;;;2.70;;
56269;SDS011;42176;43.240;27.880;2023-02-28T03:53:34;4.68;;;3.17;;
56269;SDS011;42176;43.240;27.880;2023-02-28T03:56:07;5.23;;;3.33;;
56269;SDS011;42176;43.240;27.880;2023-02-28T04:01:33;5.07;;;3.13;;
56269;SDS011;42176;43.240;27.880;2023-02-28T04:04:08;4.32;;;3.13;;
56269;SDS011;42176;43.240;27.880;2023-02-28T04:06:35;6.63;;;3.95;;
56269;SDS011;42176;43.240;27.880;2023-02-28T04:09:01;4.75;;;3.28;;
56269;SDS011;42176;43.240;27.880;2023-02-28T04:13:57;6.50;;;3.97;;
56269;SDS011;42176;43.240;27.880;2023-02-28T04:16:22;7.25;;;3.78;;
56269;SDS011;42176;43.240;27.880;2023-02-28T04:18:48;6.53;;;3.60;;
56269;SDS011;42176;43.240;27.880;2023-02-28T04:21:13;6.63;;;3.55;;
56269;SDS011;42176;43.240;27.880;2023-02-28T04:23:39;4.75;;;3.53;;
56269;SDS011;42176;43.240;27.880;2023-02-28T04:26:05;5.80;;;3.65;;
56269;SDS011;42176;43.240;27.880;2023-02-28T04:28:31;5.15;;;3.85;;
56269;SDS011;42176;43.240;27.880;2023-02-28T04:30:57;6.90;;;3.45;;
56269;SDS011;42176;43.240;27.880;2023-02-28T04:33:25;5.85;;;4.15;;
56269;SDS011;42176;43.240;27.880;2023-02-28T04:36:00;7.47;;;4.10;;
56269;SDS011;42176;43.240;27.880;2023-02-28T04:38:37;6.38;;;4.13;;
56269;SDS011;42176;43.240;27.880;2023-02-28T04:41:03;5.28;;;3.70;;
56269;SDS011;42176;43.240;27.880;2023-02-28T04:43:29;7.10;;;4.10;;
56269;SDS011;42176;43.240;27.880;2023-02-28T04:45:55;5.70;;;3.45;;
56269;SDS011;42176;43.240;27.880;2023-02-28T04:48:23;9.52;;;4.38;;
56269;SDS011;42176;43.240;27.880;2023-02-28T04:50:49;9.07;;;4.57;;
56269;SDS011;42176;43.240;27.880;2023-02-28T04:53:16;7.82;;;5.40;;
56269;SDS011;42176;43.240;27.880;2023-02-28T04:55:42;7.60;;;4.25;;
56269;SDS011;42176;43.240;27.880;2023-02-28T04:58:07;8.38;;;4.18;;
56269;SDS011;42176;43.240;27.880;2023-02-28T05:00:33;8.18;;;4.88;;
56269;SDS011;42176;43.240;27.880;2023-02-28T05:02:58;12.48;;;4.68;;
56269;SDS011;42176;43.240;27.880;2023-02-28T05:05:24;9.07;;;5.03;;
56269;SDS011;42176;43.240;27.880;2023-02-28T05:07:49;9.57;;;5.03;;
56269;SDS011;42176;43.240;27.880;2023-02-28T05:10:14;10.00;;;5.72;;
56269;SDS011;42176;43.240;27.880;2023-02-28T05:12:40;9.93;;;5.35;;
56269;SDS011;42176;43.240;27.880;2023-02-28T05:15:06;10.32;;;5.47;;
56269;SDS011;42176;43.240;27.880;2023-02-28T05:17:31;12.10;;;6.00;;
56269;SDS011;42176;43.240;27.880;2023-02-28T05:19:57;12.23;;;5.72;;
56269;SDS011;42176;43.240;27.880;2023-02-28T05:22:22;10.00;;;5.75;;
56269;SDS011;42176;43.240;27.880;2023-02-28T05:24:48;11.77;;;6.22;;
56269;SDS011;42176;43.240;27.880;2023-02-28T05:27:13;13.70;;;6.88;;
56269;SDS011;42176;43.240;27.880;2023-02-28T05:29:38;13.55;;;7.05;;
56269;SDS011;42176;43.240;27.880;2023-02-28T05:32:13;15.70;;;7.10;;
56269;SDS011;42176;43.240;27.880;2023-02-28T05:34:39;16.38;;;6.72;;
56269;SDS011;42176;43.240;27.880;2023-02-28T05:37:06;14.45;;;7.20;;
56269;SDS011;42176;43.240;27.880;2023-02-28T05:39:35;14.48;;;7.03;;
56269;SDS011;42176;43.240;27.880;2023-02-28T05:42:01;14.98;;;6.95;;
56269;SDS011;42176;43.240;27.880;2023-02-28T05:44:26;15.75;;;7.28;;
56269;SDS011;42176;43.240;27.880;2023-02-28T05:46:52;15.93;;;7.18;;
56269;SDS011;42176;43.240;27.880;2023-02-28T05:49:17;15.38;;;6.72;;
56269;SDS011;42176;43.240;27.880;2023-02-28T05:51:43;20.40;;;7.38;;
56269;SDS011;42176;43.240;27.880;2023-02-28T05:54:08;14.93;;;7.32;;
56269;SDS011;42176;43.240;27.880;2023-02-28T05:56:34;15.65;;;7.22;;
56269;SDS011;42176;43.240;27.880;2023-02-28T05:59:00;18.38;;;8.50;;
56269;SDS011;42176;43.240;27.880;2023-02-28T06:01:39;18.67;;;9.38;;
56269;SDS011;42176;43.240;27.880;2023-02-28T06:04:14;14.32;;;7.75;;
56269;SDS011;42176;43.240;27.880;2023-02-28T06:06:45;15.63;;;8.30;;
56269;SDS011;42176;43.240;27.880;2023-02-28T06:09:11;20.60;;;9.45;;
56269;SDS011;42176;43.240;27.880;2023-02-28T06:11:36;23.02;;;8.57;;
56269;SDS011;42176;43.240;27.880;2023-02-28T06:14:02;20.17;;;8.82;;
56269;SDS011;42176;43.240;27.880;2023-02-28T06:16:29;22.10;;;9.48;;
56269;SDS011;42176;43.240;27.880;2023-02-28T06:18:56;19.52;;;8.98;;
56269;SDS011;42176;43.240;27.880;2023-02-28T06:21:23;21.02;;;9.38;;
56269;SDS011;42176;43.240;27.880;2023-02-28T06:23:48;19.15;;;8.55;;
56269;SDS011;42176;43.240;27.880;2023-02-28T06:26:14;20.15;;;8.95;;
56269;SDS011;42176;43.240;27.880;2023-02-28T06:28:39;14.20;;;6.53;;
56269;SDS011;42176;43.240;27.880;2023-02-28T06:31:09;18.95;;;7.70;;
56269;SDS011;42176;43.240;27.880;2023-02-28T06:33:36;17.83;;;8.38;;
56269;SDS011;42176;43.240;27.880;2023-02-28T06:36:03;17.52;;;7.65;;
56269;SDS011;42176;43.240;27.880;2023-02-28T06:38:30;16.92;;;8.88;;
56269;SDS011;42176;43.240;27.880;2023-02-28T06:40:56;20.25;;;8.43;;
56269;SDS011;42176;43.240;27.880;2023-02-28T06:43:24;13.27;;;6.88;;
56269;SDS011;42176;43.240;27.880;2023-02-28T06:45:50;10.15;;;6.22;;
56269;SDS011;42176;43.240;27.880;2023-02-28T06:48:20;17.02;;;7.82;;
56269;SDS011;42176;43.240;27.880;2023-02-28T06:50:45;19.48;;;8.20;;
56269;SDS011;42176;43.240;27.880;2023-02-28T06:53:11;12.82;;;7.28;;
56269;SDS011;42176;43.240;27.880;2023-02-28T06:55:37;13.90;;;7.82;;
56269;SDS011;42176;43.240;27.880;2023-02-28T06:58:03;13.35;;;5.35;;
56269;SDS011;42176;43.240;27.880;2023-02-28T07:00:39;14.13;;;7.15;;
56269;SDS011;42176;43.240;27.880;2023-02-28T07:03:06;13.13;;;7.10;;
56269;SDS011;42176;43.240;27.880;2023-02-28T07:05:31;12.15;;;6.18;;
56269;SDS011;42176;43.240;27.880;2023-02-28T07:07:56;15.73;;;7.30;;
56269;SDS011;42176;43.240;27.880;2023-02-28T07:10:22;13.40;;;5.88;;
56269;SDS011;42176;43.240;27.880;2023-02-28T07:12:47;10.48;;;5.72;;
56269;SDS011;42176;43.240;27.880;2023-02-28T07:15:13;6.80;;;4.30;;
56269;SDS011;42176;43.240;27.880;2023-02-28T07:17:38;11.35;;;5.28;;
56269;SDS011;42176;43.240;27.880;2023-02-28T07:20:04;16.08;;;8.98;;
56269;SDS011;42176;43.240;27.880;2023-02-28T07:22:30;14.18;;;5.93;;
56269;SDS011;42176;43.240;27.880;2023-02-28T07:24:55;11.30;;;6.25;;
56269;SDS011;42176;43.240;27.880;2023-02-28T07:27:21;14.38;;;7.03;;
56269;SDS011;42176;43.240;27.880;2023-02-28T07:29:50;13.63;;;5.82;;
56269;SDS011;42176;43.240;27.880;2023-02-28T07:32:16;7.72;;;4.53;;
56269;SDS011;42176;43.240;27.880;2023-02-28T07:34:42;10.98;;;6.13;;
56269;SDS011;42176;43.240;27.880;2023-02-28T07:37:07;11.30;;;4.72;;
56269;SDS011;42176;43.240;27.880;2023-02-28T07:39:33;5.35;;;2.60;;
56269;SDS011;42176;43.240;27.880;2023-02-28T07:41:58;9.65;;;4.63;;
56269;SDS011;42176;43.240;27.880;2023-02-28T07:44:25;13.18;;;5.50;;
56269;SDS011;42176;43.240;27.880;2023-02-28T07:46:51;8.80;;;5.05;;
56269;SDS011;42176;43.240;27.880;2023-02-28T07:49:17;8.70;;;4.15;;
56269;SDS011;42176;43.240;27.880;2023-02-28T07:51:43;8.80;;;4.00;;
56269;SDS011;42176;43.240;27.880;2023-02-28T07:54:08;9.88;;;5.78;;
56269;SDS011;42176;43.240;27.880;2023-02-28T07:56:34;8.70;;;4.68;;
56269;SDS011;42176;43.240;27.880;2023-02-28T07:58:59;5.75;;;3.42;;
56269;SDS011;42176;43.240;27.880;2023-02-28T08:01:26;4.93;;;3.08;;
56269;SDS011;42176;43.240;27.880;2023-02-28T08:03:52;8.35;;;4.15;;
56269;SDS011;42176;43.240;27.880;2023-02-28T08:06:22;7.18;;;3.75;;
56269;SDS011;42176;43.240;27.880;2023-02-28T08:08:48;7.00;;;4.82;;
56269;SDS011;42176;43.240;27.880;2023-02-28T08:11:15;6.90;;;4.50;;
56269;SDS011;42176;43.240;27.880;2023-02-28T08:13:41;9.95;;;4.28;;
56269;SDS011;42176;43.240;27.880;2023-02-28T08:16:10;9.63;;;4.30;;
56269;SDS011;42176;43.240;27.880;2023-02-28T08:18:36;5.55;;;3.08;;
56269;SDS011;42176;43.240;27.880;2023-02-28T08:21:09;10.65;;;3.63;;
56269;SDS011;42176;43.240;27.880;2023-02-28T08:23:35;7.28;;;4.32;;
56269;SDS011;42176;43.240;27.880;2023-02-28T08:26:00;5.03;;;3.08;;
56269;SDS011;42176;43.240;27.880;2023-02-28T08:28:26;5.30;;;3.55;;
56269;SDS011;42176;43.240;27.880;2023-02-28T08:30:52;7.38;;;4.43;;
56269;SDS011;42176;43.240;27.880;2023-02-28T08:33:17;5.75;;;3.58;;
56269;SDS011;42176;43.240;27.880;2023-02-28T08:35:42;7.07;;;4.30;;
56269;SDS011;42176;43.240;27.880;2023-02-28T08:38:08;6.82;;;3.63;;
56269;SDS011;42176;43.240;27.880;2023-02-28T08:40:33;7.05;;;4.13;;
56269;SDS011;42176;43.240;27.880;2023-02-28T08:43:00;6.43;;;4.22;;
56269;SDS011;42176;43.240;27.880;2023-02-28T08:45:25;7.35;;;3.83;;
56269;SDS011;42176;43.240;27.880;2023-02-28T08:47:51;6.15;;;3.35;;
56269;SDS011;42176;43.240;27.880;2023-02-28T08:50:17;7.03;;;4.85;;
56269;SDS011;42176;43.240;27.880;2023-02-28T08:52:43;11.50;;;5.32;;
56269;SDS011;42176;43.240;27.880;2023-02-28T08:55:09;6.45;;;3.88;;
56269;SDS011;42176;43.240;27.880;2023-02-28T08:57:35;5.60;;;3.67;;
56269;SDS011;42176;43.240;27.880;2023-02-28T09:00:01;7.88;;;3.28;;
56269;SDS011;42176;43.240;27.880;2023-02-28T09:02:30;6.93;;;4.65;;
56269;SDS011;42176;43.240;27.880;2023-02-28T09:04:57;8.10;;;4.32;;
56269;SDS011;42176;43.240;27.880;2023-02-28T09:07:23;8.27;;;4.63;;
56269;SDS011;42176;43.240;27.880;2023-02-28T09:09:49;8.45;;;3.58;;
56269;SDS011;42176;43.240;27.880;2023-02-28T09:12:25;5.72;;;4.10;;
56269;SDS011;42176;43.240;27.880;2023-02-28T09:14:51;8.23;;;4.60;;
56269;SDS011;42176;43.240;27.880;2023-02-28T09:17:17;10.60;;;4.68;;
56269;SDS011;42176;43.240;27.880;2023-02-28T09:19:44;7.72;;;4.20;;
56269;SDS011;42176;43.240;27.880;2023-02-28T09:22:10;8.10;;;4.97;;
56269;SDS011;42176;43.240;27.880;2023-02-28T09:24:36;6.53;;;5.15;;
56269;SDS011;42176;43.240;27.880;2023-02-28T09:27:02;5.03;;;3.53;;
56269;SDS011;42176;43.240;27.880;2023-02-28T09:29:28;7.70;;;4.97;;
56269;SDS011;42176;43.240;27.880;2023-02-28T09:31:54;10.80;;;5.95;;
56269;SDS011;42176;43.240;27.880;2023-02-28T09:34:19;9.10;;;4.40;;
56269;SDS011;42176;43.240;27.880;2023-02-28T09:36:45;8.25;;;4.30;;
56269;SDS011;42176;43.240;27.880;2023-02-28T09:39:11;4.88;;;3.30;;
56269;SDS011;42176;43.240;27.880;2023-02-28T09:41:38;7.10;;;4.18;;
56269;SDS011;42176;43.240;27.880;2023-02-28T09:44:15;11.77;;;4.65;;
56269;SDS011;42176;43.240;27.880;2023-02-28T09:46:48;8.82;;;4.72;;
56269;SDS011;42176;43.240;27.880;2023-02-28T09:51:53;13.75;;;5.63;;
56269;SDS011;42176;43.240;27.880;2023-02-28T09:54:24;11.48;;;6.25;;
56269;SDS011;42176;43.240;27.880;2023-02-28T10:05:27;6.43;;;3.78;;
56269;SDS011;42176;43.240;27.880;2023-02-28T10:15:51;7.55;;;4.60;;
56269;SDS011;42176;43.240;27.880;2023-02-28T10:18:23;8.75;;;4.53;;
56269;SDS011;42176;43.240;27.880;2023-02-28T10:20:52;7.97;;;4.30;;
56269;SDS011;42176;43.240;27.880;2023-02-28T10:23:21;7.90;;;4.18;;
56269;SDS011;42176;43.240;27.880;2023-02-28T10:26:11;8.27;;;4.22;;
56269;SDS011;42176;43.240;27.880;2023-02-28T10:28:38;9.13;;;4.90;;
56269;SDS011;42176;43.240;27.880;2023-02-28T10:31:05;6.97;;;4.38;;
56269;SDS011;42176;43.240;27.880;2023-02-28T10:33:34;6.28;;;3.83;;
56269;SDS011;42176;43.240;27.880;2023-02-28T10:36:00;7.75;;;4.30;;
56269;SDS011;42176;43.240;27.880;2023-02-28T10:38:28;10.27;;;5.25;;
56269;SDS011;42176;43.240;27.880;2023-02-28T10:41:05;12.05;;;5.22;;
56269;SDS011;42176;43.240;27.880;2023-02-28T10:43:33;8.02;;;4.93;;
56269;SDS011;42176;43.240;27.880;2023-02-28T10:46:18;8.68;;;4.75;;
56269;SDS011;42176;43.240;27.880;2023-02-28T10:49:01;6.88;;;3.95;;
56269;SDS011;42176;43.240;27.880;2023-02-28T10:51:34;8.45;;;4.80;;
56269;SDS011;42176;43.240;27.880;2023-02-28T10:54:02;6.22;;;3.63;;
56269;SDS011;42176;43.240;27.880;2023-02-28T10:56:28;11.95;;;5.05;;
56269;SDS011;42176;43.240;27.880;2023-02-28T11:01:55;8.13;;;3.67;;
56269;SDS011;42176;43.240;27.880;2023-02-28T11:07:16;7.75;;;4.30;;
56269;SDS011;42176;43.240;27.880;2023-02-28T11:09:45;4.93;;;3.50;;
56269;SDS011;42176;43.240;27.880;2023-02-28T11:12:28;3.78;;;3.17;;
56269;SDS011;42176;43.240;27.880;2023-02-28T11:15:02;4.72;;;2.65;;
56269;SDS011;42176;43.240;27.880;2023-02-28T11:17:31;6.10;;;3.78;;
56269;SDS011;42176;43.240;27.880;2023-02-28T11:20:06;10.60;;;4.70;;
56269;SDS011;42176;43.240;27.880;2023-02-28T11:22:43;7.00;;;4.15;;
56269;SDS011;42176;43.240;27.880;2023-02-28T11:27:49;5.82;;;3.67;;
56269;SDS011;42176;43.240;27.880;2023-02-28T11:30:26;11.80;;;4.75;;
56269;SDS011;42176;43.240;27.880;2023-02-28T11:33:00;10.98;;;4.25;;
56269;SDS011;42176;43.240;27.880;2023-02-28T11:35:28;15.55;;;5.30;;
56269;SDS011;42176;43.240;27.880;2023-02-28T11:37:59;8.02;;;4.50;;
56269;SDS011;42176;43.240;27.880;2023-02-28T11:40:36;10.50;;;4.75;;
56269;SDS011;42176;43.240;27.880;2023-02-28T11:45:59;8.60;;;4.75;;
56269;SDS011;42176;43.240;27.880;2023-02-28T11:56:44;15.20;;;4.72;;
56269;SDS011;42176;43.240;27.880;2023-02-28T12:02:22;10.45;;;4.65;;
56269;SDS011;42176;43.240;27.880;2023-02-28T12:07:50;9.18;;;4.65;;
56269;SDS011;42176;43.240;27.880;2023-02-28T12:10:51;7.28;;;3.97;;
56269;SDS011;42176;43.240;27.880;2023-02-28T12:13:36;7.93;;;4.00;;
56269;SDS011;42176;43.240;27.880;2023-02-28T12:19:25;4.88;;;3.08;;
56269;SDS011;42176;43.240;27.880;2023-02-28T12:27:36;10.15;;;4.97;;
56269;SDS011;42176;43.240;27.880;2023-02-28T12:33:01;7.82;;;4.70;;
56269;SDS011;42176;43.240;27.880;2023-02-28T12:35:32;8.85;;;4.97;;
56269;SDS011;42176;43.240;27.880;2023-02-28T12:38:04;13.13;;;5.40;;
56269;SDS011;42176;43.240;27.880;2023-02-28T12:40:52;7.75;;;4.28;;
56269;SDS011;42176;43.240;27.880;2023-02-28T12:43:22;8.90;;;5.88;;
56269;SDS011;42176;43.240;27.880;2023-02-28T12:48:55;9.77;;;5.45;;
56269;SDS011;42176;43.240;27.880;2023-02-28T12:51:24;5.88;;;3.95;;
56269;SDS011;42176;43.240;27.880;2023-02-28T12:53:58;16.23;;;8.05;;
56269;SDS011;42176;43.240;27.880;2023-02-28T13:00:04;12.85;;;5.65;;
56269;SDS011;42176;43.240;27.880;2023-02-28T13:11:01;9.43;;;4.63;;
56269;SDS011;42176;43.240;27.880;2023-02-28T13:13:27;8.27;;;4.90;;
56269;SDS011;42176;43.240;27.880;2023-02-28T13:16:06;6.20;;;4.85;;
56269;SDS011;42176;43.240;27.880;2023-02-28T13:18:37;8.95;;;5.53;;
56269;SDS011;42176;43.240;27.880;2023-02-28T13:21:06;6.03;;;3.38;;
56269;SDS011;42176;43.240;27.880;2023-02-28T13:29:02;12.05;;;5.65;;
56269;SDS011;42176;43.240;27.880;2023-02-28T13:32:29;11.85;;;5.43;;
56269;SDS011;42176;43.240;27.880;2023-02-28T13:34:35;15.38;;;7.28;;
56269;SDS011;42176;43.240;27.880;2023-02-28T13:39:56;9.80;;;5.40;;
56269;SDS011;42176;43.240;27.880;2023-02-28T13:47:35;12.38;;;4.75;;
56269;SDS011;42176;43.240;27.880;2023-02-28T13:52:54;15.23;;;6.75;;
56269;SDS011;42176;43.240;27.880;2023-02-28T14:01:44;19.02;;;10.27;;
56269;SDS011;42176;43.240;27.880;2023-02-28T14:06:32;13.60;;;8.10;;
56269;SDS011;42176;43.240;27.880;2023-02-28T14:08:59;16.60;;;9.10;;
56269;SDS011;42176;43.240;27.880;2023-02-28T14:11:33;19.77;;;9.50;;
56269;SDS011;42176;43.240;27.880;2023-02-28T14:14:01;21.83;;;8.50;;
56269;SDS011;42176;43.240;27.880;2023-02-28T14:16:34;10.30;;;4.97;;
56269;SDS011;42176;43.240;27.880;2023-02-28T14:21:52;9.05;;;3.97;;
56269;SDS011;42176;43.240;27.880;2023-02-28T14:30:51;12.40;;;6.10;;
56269;SDS011;42176;43.240;27.880;2023-02-28T14:36:06;18.25;;;9.65;;
56269;SDS011;42176;43.240;27.880;2023-02-28T14:38:43;12.45;;;7.03;;
56269;SDS011;42176;43.240;27.880;2023-02-28T14:41:22;13.02;;;6.70;;
56269;SDS011;42176;43.240;27.880;2023-02-28T14:43:49;12.48;;;6.35;;
56269;SDS011;42176;43.240;27.880;2023-02-28T14:46:20;12.90;;;8.00;;
56269;SDS011;42176;43.240;27.880;2023-02-28T14:48:47;8.93;;;5.05;;
56269;SDS011;42176;43.240;27.880;2023-02-28T14:51:18;16.10;;;7.13;;
56269;SDS011;42176;43.240;27.880;2023-02-28T14:53:47;13.00;;;6.63;;
56269;SDS011;42176;43.240;27.880;2023-02-28T14:56:19;9.60;;;4.65;;
56269;SDS011;42176;43.240;27.880;2023-02-28T14:58:51;12.52;;;6.45;;
56269;SDS011;42176;43.240;27.880;2023-02-28T15:01:19;15.48;;;6.97;;
56269;SDS011;42176;43.240;27.880;2023-02-28T15:03:47;22.65;;;7.28;;
56269;SDS011;42176;43.240;27.880;2023-02-28T15:06:14;15.55;;;8.50;;
56269;SDS011;42176;43.240;27.880;2023-02-28T15:08:42;18.60;;;7.20;;
56269;SDS011;42176;43.240;27.880;2023-02-28T15:11:08;12.80;;;6.65;;
56269;SDS011;42176;43.240;27.880;2023-02-28T15:13:48;10.48;;;6.00;;
56269;SDS011;42176;43.240;27.880;2023-02-28T15:16:17;12.38;;;6.90;;
56269;SDS011;42176;43.240;27.880;2023-02-28T15:18:51;10.90;;;5.75;;
56269;SDS011;42176;43.240;27.880;2023-02-28T15:21:20;6.90;;;3.40;;
56269;SDS011;42176;43.240;27.880;2023-02-28T15:23:52;13.13;;;5.88;;
56269;SDS011;42176;43.240;27.880;2023-02-28T15:26:29;13.18;;;7.85;;
56269;SDS011;42176;43.240;27.880;2023-02-28T15:29:10;11.75;;;6.05;;
56269;SDS011;42176;43.240;27.880;2023-02-28T15:31:43;16.67;;;7.50;;
56269;SDS011;42176;43.240;27.880;2023-02-28T15:39:52;10.63;;;3.03;;
56269;SDS011;42176;43.240;27.880;2023-02-28T15:42:20;20.30;;;8.57;;
56269;SDS011;42176;43.240;27.880;2023-02-28T15:44:47;29.52;;;11.07;;
56269;SDS011;42176;43.240;27.880;2023-02-28T15:49:45;14.93;;;6.53;;
56269;SDS011;42176;43.240;27.880;2023-02-28T15:52:26;19.33;;;10.40;;
56269;SDS011;42176;43.240;27.880;2023-02-28T15:54:59;11.32;;;6.75;;
56269;SDS011;42176;43.240;27.880;2023-02-28T15:57:42;17.42;;;8.02;;
56269;SDS011;42176;43.240;27.880;2023-02-28T16:00:16;20.70;;;7.75;;
56269;SDS011;42176;43.240;27.880;2023-02-28T16:02:44;12.80;;;6.53;;
56269;SDS011;42176;43.240;27.880;2023-02-28T16:07:39;18.77;;;8.65;;
56269;SDS011;42176;43.240;27.880;2023-02-28T16:10:10;6.38;;;3.72;;
56269;SDS011;42176;43.240;27.880;2023-02-28T16:12:39;15.50;;;7.28;;
56269;SDS011;42176;43.240;27.880;2023-02-28T16:15:06;15.93;;;6.53;;
56269;SDS011;42176;43.240;27.880;2023-02-28T16:17:54;13.45;;;5.82;;
56269;SDS011;42176;43.240;27.880;2023-02-28T16:20:22;10.23;;;3.20;;
56269;SDS011;42176;43.240;27.880;2023-02-28T16:22:51;19.83;;;8.18;;
56269;SDS011;42176;43.240;27.880;2023-02-28T16:25:18;19.65;;;8.48;;
56269;SDS011;42176;43.240;27.880;2023-02-28T16:27:47;14.57;;;7.97;;
56269;SDS011;42176;43.240;27.880;2023-02-28T16:30:17;13.88;;;5.95;;
56269;SDS011;42176;43.240;27.880;2023-02-28T16:32:46;17.02;;;6.25;;
56269;SDS011;42176;43.240;27.880;2023-02-28T16:35:11;17.67;;;7.13;;
56269;SDS011;42176;43.240;27.880;2023-02-28T16:37:39;15.98;;;7.05;;
56269;SDS011;42176;43.240;27.880;2023-02-28T16:40:05;15.32;;;6.57;;
56269;SDS011;42176;43.240;27.880;2023-02-28T16:42:31;7.30;;;4.13;;
56269;SDS011;42176;43.240;27.880;2023-02-28T16:44:57;20.88;;;8.60;;
56269;SDS011;42176;43.240;27.880;2023-02-28T16:47:23;19.58;;;7.45;;
56269;SDS011;42176;43.240;27.880;2023-02-28T16:49:49;13.00;;;6.45;;
56269;SDS011;42176;43.240;27.880;2023-02-28T16:52:15;25.17;;;10.77;;
56269;SDS011;42176;43.240;27.880;2023-02-28T16:54:41;30.85;;;14.57;;
56269;SDS011;42176;43.240;27.880;2023-02-28T16:57:08;32.92;;;18.00;;
56269;SDS011;42176;43.240;27.880;2023-02-28T16:59:42;24.15;;;11.55;;
56269;SDS011;42176;43.240;27.880;2023-02-28T17:02:11;31.88;;;15.55;;
56269;SDS011;42176;43.240;27.880;2023-02-28T17:04:41;14.68;;;7.38;;
56269;SDS011;42176;43.240;27.880;2023-02-28T17:07:10;21.92;;;9.30;;
56269;SDS011;42176;43.240;27.880;2023-02-28T17:09:37;15.45;;;7.53;;
56269;SDS011;42176;43.240;27.880;2023-02-28T17:12:03;19.05;;;8.10;;
56269;SDS011;42176;43.240;27.880;2023-02-28T17:14:29;35.38;;;14.63;;
56269;SDS011;42176;43.240;27.880;2023-02-28T17:16:54;14.10;;;7.53;;
56269;SDS011;42176;43.240;27.880;2023-02-28T17:19:19;7.82;;;4.93;;